Time;durP1;ratioP1;P1;durP2;ratioP2;P2;SDS_P1;SDS_P2;PMS_P1;PMS_P2;Temp;Humidity;BMP_temperature;BMP_pressure;BME280_temperature;BME280_humidity;BME280_pressure;Samples;Min_cycle;Max_cycle;Signal;HPM_P1;HPM_P2
2021/05/08 00:00:43;;;;;;;3.00;2.60;;;;;;;;;;5089642;28;20024;-54
2021/05/08 00:03:09;;;;;;;2.87;2.50;;;;;;;;;;5094095;28;20046;-52
2021/05/08 00:05:34;;;;;;;2.57;2.30;;;;;;;;;;5092826;28;20012;-55
2021/05/08 00:07:59;;;;;;;4.13;2.57;;;;;;;;;;5088239;28;20017;-55
2021/05/08 00:10:24;;;;;;;3.17;2.13;;;;;;;;;;5086608;28;20061;-49
2021/05/08 00:12:50;;;;;;;3.33;1.80;;;;;;;;;;5091861;28;20028;-54
2021/05/08 00:15:16;;;;;;;2.40;2.07;;;;;;;;;;5093225;28;20040;-53
2021/05/08 00:17:41;;;;;;;2.60;2.20;;;;;;;;;;5073177;28;20115;-53
2021/05/08 00:20:10;;;;;;;2.57;1.83;;;;;;;;;;5073461;28;20017;-55
2021/05/08 00:22:36;;;;;;;3.07;2.00;;;;;;;;;;5075656;28;20033;-53
2021/05/08 00:25:01;;;;;;;3.10;1.77;;;;;;;;;;5073758;28;20028;-54
2021/05/08 00:27:26;;;;;;;2.80;2.00;;;;;;;;;;5076152;28;20016;-51
2021/05/08 00:29:52;;;;;;;2.50;1.97;;;;;;;;;;5089621;28;20103;-55
2021/05/08 00:32:17;;;;;;;3.10;2.00;;;;;;;;;;5091433;28;20031;-56
2021/05/08 00:34:42;;;;;;;3.40;1.70;;;;;;;;;;5093194;28;20016;-57
2021/05/08 00:37:08;;;;;;;3.10;1.87;;;;;;;;;;5090091;28;20020;-56
2021/05/08 00:39:33;;;;;;;3.17;1.60;;;;;;;;;;5090605;28;20479;-51
2021/05/08 00:41:58;;;;;;;3.27;1.60;;;;;;;;;;5084726;28;20086;-55
2021/05/08 00:44:24;;;;;;;2.20;1.90;;;;;;;;;;5073161;28;20024;-55
2021/05/08 00:46:49;;;;;;;3.10;2.23;;;;;;;;;;5079573;28;20016;-50
2021/05/08 00:49:15;;;;;;;2.57;1.80;;;;;;;;;;5083238;28;20016;-53
2021/05/08 00:51:41;;;;;;;2.97;1.73;;;;;;;;;;5072658;28;20480;-55
2021/05/08 00:54:06;;;;;;;2.77;2.40;;;;;;;;;;5072994;28;20047;-53
2021/05/08 00:56:31;;;;;;;2.50;2.07;;;;;;;;;;5086450;28;20479;-55
2021/05/08 00:58:57;;;;;;;2.23;1.87;;;;;;;;;;5076330;28;20044;-55
2021/05/08 01:01:22;;;;;;;2.50;2.27;;;;;;;;;;5083078;28;20753;-53
2021/05/08 01:03:48;;;;;;;2.30;2.10;;;;;;;;;;5077467;28;20027;-54
2021/05/08 01:06:13;;;;;;;2.17;1.57;;;;;;;;;;5077908;28;20039;-52
2021/05/08 01:08:39;;;;;;;3.13;1.70;;;;;;;;;;5087224;28;20020;-55
2021/05/08 01:11:05;;;;;;;2.70;2.40;;;;;;;;;;5077136;28;20047;-55
2021/05/08 01:13:31;;;;;;;2.17;1.87;;;;;;;;;;5072623;28;20040;-54
2021/05/08 01:15:56;;;;;;;3.37;2.53;;;;;;;;;;5077181;28;20040;-56
2021/05/08 01:18:22;;;;;;;3.10;2.33;;;;;;;;;;5076890;28;20031;-55
2021/05/08 01:20:47;;;;;;;3.00;1.80;;;;;;;;;;5081128;28;20065;-53
2021/05/08 01:23:12;;;;;;;2.53;2.27;;;;;;;;;;5092497;28;20035;-56
2021/05/08 01:25:37;;;;;;;2.77;2.30;;;;;;;;;;5091813;28;20320;-53
2021/05/08 01:28:03;;;;;;;4.30;2.73;;;;;;;;;;5082306;28;20047;-53
2021/05/08 01:30:29;;;;;;;3.03;2.70;;;;;;;;;;5071797;28;20044;-55
2021/05/08 01:32:55;;;;;;;4.73;2.53;;;;;;;;;;5078965;28;20021;-53
2021/05/08 01:35:20;;;;;;;3.40;2.30;;;;;;;;;;5073188;28;20099;-55
2021/05/08 01:37:45;;;;;;;2.90;1.70;;;;;;;;;;5069687;28;20537;-51
2021/05/08 01:40:12;;;;;;;2.57;2.13;;;;;;;;;;5090808;28;20020;-54
2021/05/08 01:42:41;;;;;;;3.30;2.37;;;;;;;;;;5080421;28;20016;-55
2021/05/08 01:45:17;;;;;;;3.23;2.60;;;;;;;;;;5078127;28;20024;-51
2021/05/08 01:47:43;;;;;;;4.93;2.80;;;;;;;;;;5070481;28;20411;-51
2021/05/08 01:50:09;;;;;;;4.33;3.27;;;;;;;;;;5071892;28;20023;-51
2021/05/08 01:52:35;;;;;;;3.67;2.87;;;;;;;;;;5083490;28;20030;-55
2021/05/08 01:55:01;;;;;;;3.70;2.73;;;;;;;;;;5071854;28;20092;-55
2021/05/08 01:57:26;;;;;;;3.80;2.77;;;;;;;;;;5085021;28;20027;-54
2021/05/08 01:59:52;;;;;;;2.93;2.47;;;;;;;;;;5088461;28;20590;-50
2021/05/08 02:02:17;;;;;;;3.53;2.33;;;;;;;;;;5091646;28;20024;-54
2021/05/08 02:04:42;;;;;;;3.00;2.20;;;;;;;;;;5090105;28;20040;-52
2021/05/08 02:07:07;;;;;;;2.17;1.97;;;;;;;;;;5079118;28;20027;-53
2021/05/08 02:09:32;;;;;;;3.80;2.80;;;;;;;;;;5083952;28;20085;-53
2021/05/08 02:11:58;;;;;;;3.10;2.80;;;;;;;;;;5076129;28;20047;-54
2021/05/08 02:14:23;;;;;;;3.30;2.53;;;;;;;;;;5090834;28;20024;-51
2021/05/08 02:16:48;;;;;;;2.63;2.17;;;;;;;;;;5087327;28;20096;-55
2021/05/08 02:19:13;;;;;;;3.03;2.70;;;;;;;;;;5069092;28;20463;-54
2021/05/08 02:21:39;;;;;;;3.47;2.83;;;;;;;;;;5071146;28;20025;-53
2021/05/08 02:24:05;;;;;;;5.97;3.10;;;;;;;;;;5071895;28;20027;-56
2021/05/08 02:26:30;;;;;;;3.90;3.10;;;;;;;;;;5081862;28;20024;-54
2021/05/08 02:28:56;;;;;;;2.93;2.60;;;;;;;;;;5076405;28;20021;-55
2021/05/08 02:31:21;;;;;;;3.50;3.20;;;;;;;;;;5091451;28;20024;-55
2021/05/08 02:33:46;;;;;;;3.33;2.83;;;;;;;;;;5091733;28;20016;-55
2021/05/08 02:36:11;;;;;;;3.43;2.80;;;;;;;;;;5088079;28;20020;-55
2021/05/08 02:38:36;;;;;;;3.80;3.37;;;;;;;;;;5081090;28;20108;-56
2021/05/08 02:41:02;;;;;;;4.90;3.10;;;;;;;;;;5080335;28;20154;-54
2021/05/08 02:43:27;;;;;;;4.17;3.50;;;;;;;;;;5090450;28;20352;-57
2021/05/08 02:45:52;;;;;;;4.17;3.10;;;;;;;;;;5078911;28;20466;-56
2021/05/08 02:48:17;;;;;;;4.07;3.23;;;;;;;;;;5068462;28;20443;-55
2021/05/08 02:50:43;;;;;;;3.23;2.87;;;;;;;;;;5071601;28;20035;-55
2021/05/08 02:53:08;;;;;;;3.43;3.13;;;;;;;;;;5071386;28;20031;-55
2021/05/08 02:55:33;;;;;;;3.80;3.30;;;;;;;;;;5080441;28;20093;-57
2021/05/08 02:58:01;;;;;;;4.27;2.97;;;;;;;;;;5073181;28;20331;-56
2021/05/08 03:00:27;;;;;;;4.33;3.07;;;;;;;;;;5058076;28;20020;-52
2021/05/08 03:02:52;;;;;;;3.77;3.00;;;;;;;;;;5094510;28;20020;-51
2021/05/08 03:05:17;;;;;;;3.27;2.93;;;;;;;;;;5088517;28;20395;-52
2021/05/08 03:07:42;;;;;;;4.67;3.13;;;;;;;;;;5087988;28;20028;-55
2021/05/08 03:10:08;;;;;;;2.80;2.57;;;;;;;;;;5080128;28;20016;-53
2021/05/08 03:12:34;;;;;;;3.47;2.77;;;;;;;;;;5094231;28;20048;-54
2021/05/08 03:14:59;;;;;;;4.03;2.70;;;;;;;;;;5087347;28;20429;-53
2021/05/08 03:17:24;;;;;;;4.63;3.73;;;;;;;;;;5078482;28;20611;-52
2021/05/08 03:19:49;;;;;;;3.87;2.90;;;;;;;;;;5073019;28;20363;-55
2021/05/08 03:22:15;;;;;;;5.70;3.00;;;;;;;;;;5074994;28;20025;-53
2021/05/08 03:24:40;;;;;;;3.27;2.80;;;;;;;;;;5078584;28;20387;-54
2021/05/08 03:27:05;;;;;;;3.20;2.90;;;;;;;;;;5089076;28;20020;-53
2021/05/08 03:29:30;;;;;;;4.13;3.17;;;;;;;;;;5090971;28;20077;-53
2021/05/08 03:31:56;;;;;;;4.33;3.00;;;;;;;;;;5094818;28;20078;-54
2021/05/08 03:34:21;;;;;;;4.03;3.13;;;;;;;;;;5092496;28;20043;-54
2021/05/08 03:36:47;;;;;;;4.00;3.10;;;;;;;;;;5074402;28;20028;-52
2021/05/08 03:39:12;;;;;;;3.43;3.13;;;;;;;;;;5082282;28;20107;-52
2021/05/08 03:41:38;;;;;;;6.10;3.20;;;;;;;;;;5074158;28;20416;-54
2021/05/08 03:44:03;;;;;;;3.87;3.47;;;;;;;;;;5074794;28;20467;-53
2021/05/08 03:46:28;;;;;;;3.77;3.47;;;;;;;;;;5088814;28;20530;-55
2021/05/08 03:48:53;;;;;;;4.37;3.40;;;;;;;;;;5074895;28;20493;-56
2021/05/08 03:51:22;;;;;;;3.00;2.70;;;;;;;;;;5094233;28;20020;-56
2021/05/08 03:53:47;;;;;;;4.90;3.50;;;;;;;;;;5091264;28;20031;-54
2021/05/08 03:56:12;;;;;;;4.73;3.63;;;;;;;;;;5087119;28;20024;-49
2021/05/08 03:58:38;;;;;;;5.60;3.57;;;;;;;;;;5081358;28;20055;-55
2021/05/08 04:01:03;;;;;;;3.70;3.00;;;;;;;;;;5074122;28;20033;-51
2021/05/08 04:03:28;;;;;;;5.43;3.67;;;;;;;;;;5073884;28;20030;-53
2021/05/08 04:05:53;;;;;;;5.20;3.53;;;;;;;;;;5081944;28;20364;-54
2021/05/08 04:08:19;;;;;;;3.33;3.00;;;;;;;;;;5081099;28;20471;-54
2021/05/08 04:10:45;;;;;;;6.47;4.03;;;;;;;;;;5079782;28;20116;-53
2021/05/08 04:13:10;;;;;;;4.13;3.73;;;;;;;;;;5073938;28;20066;-52
2021/05/08 04:15:35;;;;;;;4.13;3.33;;;;;;;;;;5082465;28;20525;-54
2021/05/08 04:18:01;;;;;;;5.10;3.50;;;;;;;;;;5072250;28;20292;-55
2021/05/08 04:20:26;;;;;;;4.10;3.70;;;;;;;;;;5073810;28;20150;-56
2021/05/08 04:22:52;;;;;;;5.53;3.60;;;;;;;;;;5079748;28;20036;-57
2021/05/08 04:25:17;;;;;;;3.73;3.40;;;;;;;;;;5075988;28;20392;-53
2021/05/08 04:27:42;;;;;;;4.87;3.87;;;;;;;;;;5087032;28;20028;-51
2021/05/08 04:30:09;;;;;;;5.80;3.60;;;;;;;;;;5082665;28;20017;-55
2021/05/08 04:32:34;;;;;;;5.30;3.33;;;;;;;;;;5076052;28;20024;-53
2021/05/08 04:34:59;;;;;;;4.07;3.70;;;;;;;;;;5074603;28;20035;-55
2021/05/08 04:37:24;;;;;;;4.20;3.80;;;;;;;;;;5074439;28;20019;-53
2021/05/08 04:39:50;;;;;;;5.60;3.53;;;;;;;;;;5071337;28;20047;-52
2021/05/08 04:42:15;;;;;;;4.20;3.80;;;;;;;;;;5073169;28;20027;-54
2021/05/08 04:44:40;;;;;;;4.40;3.53;;;;;;;;;;5079261;28;20042;-50
2021/05/08 04:47:06;;;;;;;6.07;3.70;;;;;;;;;;5084403;28;20031;-53
2021/05/08 04:49:31;;;;;;;4.53;3.87;;;;;;;;;;5089517;28;20509;-54
2021/05/08 04:51:57;;;;;;;3.83;3.50;;;;;;;;;;5090453;28;20028;-54
2021/05/08 04:54:22;;;;;;;4.17;3.63;;;;;;;;;;5092312;28;20115;-51
2021/05/08 04:56:48;;;;;;;4.13;3.47;;;;;;;;;;5086721;28;20083;-51
2021/05/08 04:59:13;;;;;;;4.53;3.53;;;;;;;;;;5090497;28;20102;-51
2021/05/08 05:01:39;;;;;;;5.33;3.70;;;;;;;;;;5072956;28;20407;-56
2021/05/08 05:04:04;;;;;;;4.40;4.00;;;;;;;;;;5073170;28;20029;-53
2021/05/08 05:06:29;;;;;;;4.67;3.37;;;;;;;;;;5078113;28;20123;-55
2021/05/08 05:08:54;;;;;;;3.77;3.43;;;;;;;;;;5071520;28;20065;-55
2021/05/08 05:11:22;;;;;;;3.80;3.40;;;;;;;;;;5088367;28;20020;-54
2021/05/08 05:13:47;;;;;;;3.63;3.30;;;;;;;;;;5093006;28;20049;-56
2021/05/08 05:16:13;;;;;;;3.90;3.60;;;;;;;;;;5077916;28;20041;-53
2021/05/08 05:18:38;;;;;;;5.27;3.60;;;;;;;;;;5077853;28;20031;-54
2021/05/08 05:21:03;;;;;;;4.00;3.70;;;;;;;;;;5085177;28;20036;-56
2021/05/08 05:23:29;;;;;;;5.53;4.67;;;;;;;;;;5078633;28;20015;-56
2021/05/08 05:25:54;;;;;;;4.33;3.50;;;;;;;;;;5083588;28;20023;-55
2021/05/08 05:28:20;;;;;;;4.23;3.83;;;;;;;;;;5069355;28;20017;-56
2021/05/08 05:30:46;;;;;;;5.03;4.07;;;;;;;;;;5078368;28;20031;-56
2021/05/08 05:33:11;;;;;;;4.30;3.90;;;;;;;;;;5080558;28;20371;-54
2021/05/08 05:35:36;;;;;;;4.50;4.10;;;;;;;;;;5085617;28;20102;-55
2021/05/08 05:38:01;;;;;;;4.72;4.32;;;;;;;;;;5070748;28;20021;-55
2021/05/08 05:40:26;;;;;;;4.70;3.85;;;;;;;;;;5071801;28;20027;-54
2021/05/08 05:42:52;;;;;;;5.63;4.20;;;;;;;;;;5076733;28;20501;-53
2021/05/08 05:45:17;;;;;;;5.28;4.20;;;;;;;;;;5091604;28;20016;-56
2021/05/08 05:47:43;;;;;;;5.35;4.22;;;;;;;;;;5088905;28;20023;-53
2021/05/08 05:50:08;;;;;;;4.68;3.83;;;;;;;;;;5089661;28;20041;-56
2021/05/08 05:52:33;;;;;;;5.10;4.22;;;;;;;;;;5091617;28;20028;-54
2021/05/08 05:54:59;;;;;;;5.00;3.83;;;;;;;;;;5086705;28;20031;-56
2021/05/08 05:57:24;;;;;;;6.05;3.75;;;;;;;;;;5070777;28;20016;-54
2021/05/08 05:59:49;;;;;;;4.80;4.40;;;;;;;;;;5051731;28;20036;-54
2021/05/08 06:02:14;;;;;;;5.85;4.57;;;;;;;;;;5071560;28;20024;-55
2021/05/08 06:04:40;;;;;;;5.30;4.40;;;;;;;;;;5071684;28;20115;-50
2021/05/08 06:07:05;;;;;;;4.57;4.03;;;;;;;;;;5082794;28;20028;-57
2021/05/08 06:09:30;;;;;;;4.00;3.03;;;;;;;;;;5082988;28;20477;-56
2021/05/08 06:11:56;;;;;;;4.80;3.97;;;;;;;;;;5080127;28;20020;-54
2021/05/08 06:14:22;;;;;;;5.53;4.75;;;;;;;;;;5075636;28;20387;-54
2021/05/08 06:16:47;;;;;;;4.85;3.83;;;;;;;;;;5082182;28;20036;-54
2021/05/08 06:19:13;;;;;;;4.50;3.88;;;;;;;;;;5085897;28;20034;-56
2021/05/08 06:21:39;;;;;;;5.32;3.45;;;;;;;;;;5090760;28;20074;-54
2021/05/08 06:24:05;;;;;;;4.35;3.95;;;;;;;;;;5080857;28;20472;-54
2021/05/08 06:26:30;;;;;;;4.55;4.15;;;;;;;;;;5079083;28;20034;-53
2021/05/08 06:28:55;;;;;;;4.28;3.78;;;;;;;;;;5076432;28;20017;-52
2021/05/08 06:31:21;;;;;;;1.30;1.17;;;;;;;;;;5080968;28;20028;-55
2021/05/08 06:33:46;;;;;;;6.40;3.92;;;;;;;;;;5071122;28;20025;-52
2021/05/08 06:36:11;;;;;;;3.90;2.97;;;;;;;;;;5076672;28;20017;-55
2021/05/08 06:38:37;;;;;;;4.03;3.58;;;;;;;;;;5078311;28;20040;-55
2021/05/08 06:41:02;;;;;;;3.70;3.40;;;;;;;;;;5070410;28;20017;-51
2021/05/08 06:43:27;;;;;;;3.40;3.03;;;;;;;;;;5071462;28;20456;-54
2021/05/08 06:45:52;;;;;;;3.28;2.97;;;;;;;;;;5071020;28;20513;-53
2021/05/08 06:48:17;;;;;;;2.80;2.60;;;;;;;;;;5084736;28;20390;-51
2021/05/08 06:50:46;;;;;;;2.92;2.63;;;;;;;;;;5090509;28;20059;-54
2021/05/08 06:53:11;;;;;;;2.92;2.60;;;;;;;;;;5076476;28;20032;-56
2021/05/08 06:55:37;;;;;;;3.25;2.95;;;;;;;;;;5078503;28;20012;-56
2021/05/08 06:58:02;;;;;;;3.22;2.90;;;;;;;;;;5085767;28;20032;-54
2021/05/08 07:00:28;;;;;;;3.70;3.00;;;;;;;;;;5088717;28;20023;-55
2021/05/08 07:02:53;;;;;;;3.50;3.20;;;;;;;;;;5089731;28;20073;-55
2021/05/08 07:05:18;;;;;;;2.90;2.70;;;;;;;;;;5088715;28;20024;-53
2021/05/08 07:07:44;;;;;;;3.53;3.22;;;;;;;;;;5073620;28;20024;-56
2021/05/08 07:10:09;;;;;;;2.67;2.47;;;;;;;;;;5070897;28;20388;-55
2021/05/08 07:12:34;;;;;;;2.15;1.92;;;;;;;;;;5070596;28;20055;-55
2021/05/08 07:15:00;;;;;;;1.30;1.20;;;;;;;;;;5075671;28;20041;-54
2021/05/08 07:17:25;;;;;;;3.63;3.28;;;;;;;;;;5073768;28;20044;-56
2021/05/08 07:19:50;;;;;;;3.60;3.15;;;;;;;;;;5087814;28;20017;-55
2021/05/08 07:22:15;;;;;;;1.20;0.98;;;;;;;;;;5085820;28;20463;-53
2021/05/08 07:24:41;;;;;;;2.10;1.83;;;;;;;;;;5082898;28;20024;-59
2021/05/08 07:27:06;;;;;;;3.35;3.13;;;;;;;;;;5078426;28;20391;-55
2021/05/08 07:29:31;;;;;;;2.70;2.47;;;;;;;;;;5086644;28;20089;-56
2021/05/08 07:31:56;;;;;;;3.67;2.90;;;;;;;;;;5090178;28;20020;-55
2021/05/08 07:34:22;;;;;;;2.00;1.80;;;;;;;;;;5089617;28;20440;-56
2021/05/08 07:36:47;;;;;;;3.40;2.72;;;;;;;;;;5081358;28;20024;-57
2021/05/08 07:39:12;;;;;;;2.67;2.38;;;;;;;;;;5068801;28;20024;-56
2021/05/08 07:41:37;;;;;;;3.67;2.03;;;;;;;;;;5080598;28;20395;-54
2021/05/08 07:44:03;;;;;;;2.10;1.83;;;;;;;;;;5083076;28;20028;-56
2021/05/08 07:46:29;;;;;;;2.78;2.58;;;;;;;;;;5089933;28;20063;-57
2021/05/08 07:48:54;;;;;;;2.88;2.65;;;;;;;;;;5070981;28;20024;-57
2021/05/08 07:51:20;;;;;;;2.85;2.10;;;;;;;;;;5090452;28;20035;-55
2021/05/08 07:53:45;;;;;;;2.75;2.13;;;;;;;;;;5073826;28;20035;-57
2021/05/08 07:56:10;;;;;;;3.20;2.47;;;;;;;;;;5073592;28;20020;-57
2021/05/08 07:58:35;;;;;;;2.20;1.92;;;;;;;;;;5071614;28;20032;-49
2021/05/08 08:01:01;;;;;;;3.55;2.10;;;;;;;;;;5088481;28;20019;-51
2021/05/08 08:03:26;;;;;;;5.43;4.30;;;;;;;;;;5079968;28;20016;-52
2021/05/08 08:05:51;;;;;;;2.67;1.65;;;;;;;;;;5075535;28;20082;-52
2021/05/08 08:08:16;;;;;;;3.33;2.88;;;;;;;;;;5077451;28;20031;-51
2021/05/08 08:10:42;;;;;;;2.92;2.60;;;;;;;;;;5089972;28;20081;-54
2021/05/08 08:13:07;;;;;;;2.80;2.28;;;;;;;;;;5080054;28;20052;-54
2021/05/08 08:15:33;;;;;;;4.85;2.03;;;;;;;;;;5073574;28;20044;-51
2021/05/08 08:17:58;;;;;;;3.67;1.02;;;;;;;;;;5079894;28;20340;-52
2021/05/08 08:20:23;;;;;;;3.10;2.65;;;;;;;;;;5073292;28;20087;-52
2021/05/08 08:22:49;;;;;;;2.75;2.00;;;;;;;;;;5075534;28;20447;-51
2021/05/08 08:25:14;;;;;;;2.80;2.58;;;;;;;;;;5075381;28;20391;-53
2021/05/08 08:27:40;;;;;;;2.40;2.20;;;;;;;;;;5074779;28;20020;-51
2021/05/08 08:30:06;;;;;;;4.13;3.38;;;;;;;;;;5084022;28;20092;-52
2021/05/08 08:32:32;;;;;;;2.20;1.10;;;;;;;;;;5076761;28;20095;-54
2021/05/08 08:34:57;;;;;;;2.78;2.00;;;;;;;;;;5080437;28;20131;-50
2021/05/08 08:37:22;;;;;;;2.38;2.17;;;;;;;;;;5073422;28;20052;-50
2021/05/08 08:39:47;;;;;;;4.32;3.40;;;;;;;;;;5070302;28;20025;-52
2021/05/08 08:42:13;;;;;;;4.00;3.63;;;;;;;;;;5072411;28;20008;-51
2021/05/08 08:44:38;;;;;;;2.67;2.45;;;;;;;;;;5071996;28;20460;-52
2021/05/08 08:47:04;;;;;;;4.18;3.78;;;;;;;;;;5072514;28;20024;-53
2021/05/08 08:49:30;;;;;;;4.07;3.67;;;;;;;;;;5070141;28;20024;-48
2021/05/08 08:51:55;;;;;;;3.60;3.30;;;;;;;;;;5077224;28;20048;-50
2021/05/08 08:54:20;;;;;;;2.72;2.53;;;;;;;;;;5090825;28;20387;-52
2021/05/08 08:56:46;;;;;;;4.53;3.55;;;;;;;;;;5093228;28;20047;-51
2021/05/08 09:01:47;;;;;;;4.05;3.65;;;;;;;;;;5086448;28;20020;-50
2021/05/08 09:04:13;;;;;;;4.95;4.55;;;;;;;;;;5076823;28;20024;-53
2021/05/08 09:06:39;;;;;;;4.57;4.18;;;;;;;;;;5090205;28;20133;-53
2021/05/08 09:09:05;;;;;;;5.80;4.90;;;;;;;;;;5071953;28;20020;-53
2021/05/08 09:11:30;;;;;;;5.40;3.65;;;;;;;;;;5072417;28;20020;-54
2021/05/08 09:14:14;;;;;;;4.70;4.30;;;;;;;;;;5076875;28;20023;-53
2021/05/08 09:16:59;;;;;;;4.38;3.28;;;;;;;;;;5061826;28;20078;-54
2021/05/08 09:19:24;;;;;;;3.83;3.42;;;;;;;;;;5049343;28;20044;-49
2021/05/08 09:21:49;;;;;;;4.50;4.07;;;;;;;;;;5056131;28;20024;-50
2021/05/08 09:24:15;;;;;;;4.68;4.28;;;;;;;;;;5034722;28;20380;-49
2021/05/08 09:26:42;;;;;;;1.95;1.75;;;;;;;;;;5052742;28;20483;-53
2021/05/08 09:29:22;;;;;;;4.03;3.72;;;;;;;;;;5055153;28;20056;-47
2021/05/08 09:31:55;;;;;;;2.92;2.25;;;;;;;;;;5071958;28;20463;-50
2021/05/08 09:34:20;;;;;;;4.50;4.20;;;;;;;;;;5066924;28;20430;-48
2021/05/08 09:36:52;;;;;;;3.58;3.28;;;;;;;;;;5052049;28;20108;-51
2021/05/08 09:39:28;;;;;;;1.35;1.15;;;;;;;;;;5058056;28;20040;-53
2021/05/08 09:41:53;;;;;;;2.85;2.63;;;;;;;;;;5051727;28;20145;-55
2021/05/08 09:44:18;;;;;;;4.13;3.58;;;;;;;;;;5066983;28;20029;-49
2021/05/08 09:46:44;;;;;;;2.92;2.72;;;;;;;;;;5051545;28;20401;-48
2021/05/08 09:49:10;;;;;;;4.15;2.97;;;;;;;;;;5048540;28;20052;-53
2021/05/08 09:51:35;;;;;;;2.65;2.45;;;;;;;;;;5051172;28;20017;-54
2021/05/08 09:54:03;;;;;;;1.88;1.65;;;;;;;;;;5052069;28;20025;-54
2021/05/08 09:56:33;;;;;;;2.70;2.10;;;;;;;;;;5051272;28;20017;-47
2021/05/08 09:59:18;;;;;;;2.95;2.50;;;;;;;;;;5047926;28;20364;-51
2021/05/08 10:01:43;;;;;;;3.45;2.83;;;;;;;;;;5050961;28;20112;-50
2021/05/08 10:04:25;;;;;;;3.05;2.70;;;;;;;;;;5051115;28;20489;-53
2021/05/08 10:07:06;;;;;;;4.30;3.00;;;;;;;;;;5058611;28;20025;-52
2021/05/08 10:09:31;;;;;;;2.05;1.95;;;;;;;;;;5048187;28;20017;-49
2021/05/08 10:11:56;;;;;;;2.03;1.85;;;;;;;;;;5051397;28;20012;-52
2021/05/08 10:14:22;;;;;;;1.83;1.23;;;;;;;;;;5052225;28;20029;-53
2021/05/08 10:16:47;;;;;;;2.70;2.50;;;;;;;;;;5080952;28;20024;-51
2021/05/08 10:19:12;;;;;;;2.20;2.00;;;;;;;;;;5078337;28;20095;-51
2021/05/08 10:21:37;;;;;;;1.65;1.15;;;;;;;;;;5073149;28;20024;-53
2021/05/08 10:24:03;;;;;;;2.00;1.80;;;;;;;;;;5082637;28;20063;-52
2021/05/08 10:26:28;;;;;;;2.75;1.70;;;;;;;;;;5077259;28;20024;-52
2021/05/08 10:28:53;;;;;;;2.85;2.28;;;;;;;;;;5069349;28;20032;-50
2021/05/08 10:31:19;;;;;;;2.70;2.50;;;;;;;;;;5081711;28;20081;-49
2021/05/08 10:33:44;;;;;;;3.20;2.47;;;;;;;;;;5085920;28;20021;-55
2021/05/08 10:36:09;;;;;;;2.05;1.92;;;;;;;;;;5070746;28;20516;-53
2021/05/08 10:38:35;;;;;;;1.55;1.45;;;;;;;;;;5073580;28;20020;-50
2021/05/08 10:41:02;;;;;;;1.50;1.05;;;;;;;;;;5076972;28;20020;-51
2021/05/08 10:43:43;;;;;;;1.75;1.65;;;;;;;;;;5074349;28;20073;-50
2021/05/08 10:46:13;;;;;;;1.83;1.33;;;;;;;;;;5083266;28;20051;-49
2021/05/08 10:48:38;;;;;;;1.77;1.40;;;;;;;;;;5071804;28;20020;-51
2021/05/08 10:51:04;;;;;;;1.98;1.88;;;;;;;;;;5075775;28;20112;-51
2021/05/08 10:53:35;;;;;;;1.83;1.52;;;;;;;;;;5077330;28;20005;-53
2021/05/08 10:56:01;;;;;;;2.92;2.40;;;;;;;;;;5083903;28;20095;-53
2021/05/08 10:58:34;;;;;;;1.85;1.73;;;;;;;;;;5086284;28;20116;-55
2021/05/08 11:01:00;;;;;;;1.83;1.25;;;;;;;;;;5079733;28;20459;-54
2021/05/08 11:03:29;;;;;;;1.98;1.77;;;;;;;;;;5071654;28;20066;-47
2021/05/08 11:06:04;;;;;;;2.10;1.80;;;;;;;;;;5076957;28;20052;-54
2021/05/08 11:08:30;;;;;;;1.88;1.77;;;;;;;;;;5070867;28;20030;-53
2021/05/08 11:10:59;;;;;;;1.60;1.27;;;;;;;;;;5070931;28;20091;-52
2021/05/08 11:13:25;;;;;;;2.00;1.80;;;;;;;;;;5071650;28;20067;-53
2021/05/08 11:18:34;;;;;;;1.65;0.80;;;;;;;;;;5072036;28;20056;-55
2021/05/08 11:21:00;;;;;;;1.70;1.58;;;;;;;;;;5084648;28;20099;-50
2021/05/08 11:23:26;;;;;;;2.15;1.60;;;;;;;;;;5086133;28;20054;-51
2021/05/08 11:25:51;;;;;;;1.90;1.80;;;;;;;;;;5079522;28;20048;-54
2021/05/08 11:28:17;;;;;;;1.65;1.45;;;;;;;;;;5071338;28;20099;-53
2021/05/08 11:30:55;;;;;;;1.45;1.08;;;;;;;;;;5089946;28;20097;-54
2021/05/08 11:33:21;;;;;;;1.50;1.40;;;;;;;;;;5094813;28;20095;-49
2021/05/08 11:35:58;;;;;;;1.35;1.10;;;;;;;;;;5092621;28;20012;-55
2021/05/08 11:38:23;;;;;;;2.10;2.00;;;;;;;;;;5070808;28;20479;-52
2021/05/08 11:40:48;;;;;;;2.83;0.88;;;;;;;;;;5074238;28;20095;-51
2021/05/08 11:43:20;;;;;;;1.48;1.38;;;;;;;;;;5075239;28;20050;-53
2021/05/08 11:45:45;;;;;;;1.25;1.10;;;;;;;;;;5086146;28;20016;-52
2021/05/08 11:48:10;;;;;;;1.67;1.40;;;;;;;;;;5091304;28;20024;-51
2021/05/08 11:50:35;;;;;;;1.70;1.60;;;;;;;;;;5083029;28;20790;-50
2021/05/08 11:53:01;;;;;;;1.30;0.90;;;;;;;;;;5078270;28;20519;-54
2021/05/08 11:55:27;;;;;;;2.45;1.23;;;;;;;;;;5093607;28;20492;-52
2021/05/08 11:57:59;;;;;;;1.23;1.13;;;;;;;;;;5091179;28;20026;-55
2021/05/08 12:00:28;;;;;;;1.73;1.27;;;;;;;;;;5086402;28;20048;-50
2021/05/08 12:03:07;;;;;;;1.38;1.27;;;;;;;;;;5073626;28;20479;-53
2021/05/08 12:05:35;;;;;;;1.83;0.90;;;;;;;;;;5073545;28;20542;-52
2021/05/08 12:08:01;;;;;;;2.03;1.35;;;;;;;;;;5072564;28;20059;-50
2021/05/08 12:10:26;;;;;;;1.23;1.10;;;;;;;;;;5073788;28;20021;-52
2021/05/08 12:12:53;;;;;;;1.80;1.08;;;;;;;;;;5073532;28;20021;-53
2021/05/08 12:15:26;;;;;;;1.10;0.93;;;;;;;;;;5073426;28;20072;-47
2021/05/08 12:17:52;;;;;;;1.10;1.00;;;;;;;;;;5089295;28;20115;-53
2021/05/08 12:20:18;;;;;;;1.00;1.00;;;;;;;;;;5077997;28;20476;-53
2021/05/08 12:22:44;;;;;;;1.58;1.20;;;;;;;;;;5073705;28;20044;-48
2021/05/08 12:25:13;;;;;;;1.27;1.08;;;;;;;;;;5075953;28;20514;-51
2021/05/08 12:27:38;;;;;;;1.20;1.00;;;;;;;;;;5069578;28;20020;-46
2021/05/08 12:30:04;;;;;;;1.70;1.10;;;;;;;;;;5085583;28;20023;-49
2021/05/08 12:32:31;;;;;;;1.10;0.90;;;;;;;;;;5088316;28;20015;-54
2021/05/08 12:34:56;;;;;;;0.77;0.77;;;;;;;;;;5092888;28;20073;-52
2021/05/08 12:37:21;;;;;;;1.00;0.97;;;;;;;;;;5092591;28;20028;-51
2021/05/08 12:39:48;;;;;;;1.20;1.10;;;;;;;;;;5080269;28;20270;-55
2021/05/08 12:42:13;;;;;;;0.98;0.88;;;;;;;;;;5073130;28;20547;-52
2021/05/08 12:44:43;;;;;;;1.38;0.90;;;;;;;;;;5081649;28;20138;-53
2021/05/08 12:47:21;;;;;;;0.90;0.80;;;;;;;;;;5072528;28;20652;-51
2021/05/08 12:50:04;;;;;;;0.80;0.80;;;;;;;;;;5070693;28;20070;-50
2021/05/08 12:52:30;;;;;;;1.83;1.17;;;;;;;;;;5072611;28;20009;-53
2021/05/08 12:54:56;;;;;;;1.38;1.25;;;;;;;;;;5073026;28;20091;-52
2021/05/08 12:57:24;;;;;;;1.10;1.00;;;;;;;;;;5072827;28;20063;-49
2021/05/08 12:59:59;;;;;;;1.45;0.55;;;;;;;;;;5075653;28;20142;-54
2021/05/08 13:02:26;;;;;;;0.82;0.60;;;;;;;;;;5085568;28;20043;-53
2021/05/08 13:04:52;;;;;;;0.82;0.70;;;;;;;;;;5072324;28;20021;-52
2021/05/08 13:07:18;;;;;;;0.88;0.68;;;;;;;;;;5085607;28;20115;-52
2021/05/08 13:09:43;;;;;;;2.80;0.77;;;;;;;;;;5089528;28;20032;-51
2021/05/08 13:12:11;;;;;;;1.40;0.60;;;;;;;;;;5087609;28;20433;-54
2021/05/08 13:14:39;;;;;;;1.08;0.60;;;;;;;;;;5071808;28;20283;-53
2021/05/08 13:17:07;;;;;;;0.50;0.50;;;;;;;;;;5067036;28;20024;-53
2021/05/08 13:19:32;;;;;;;1.08;0.30;;;;;;;;;;5076721;28;20020;-53
2021/05/08 13:21:57;;;;;;;0.83;0.50;;;;;;;;;;5075727;28;20112;-51
2021/05/08 13:24:26;;;;;;;0.73;0.70;;;;;;;;;;5089843;28;20258;-53
2021/05/08 13:26:51;;;;;;;1.25;0.70;;;;;;;;;;5072075;28;20024;-54
2021/05/08 13:29:17;;;;;;;0.93;0.60;;;;;;;;;;5069107;28;20017;-52
2021/05/08 13:31:42;;;;;;;0.80;0.73;;;;;;;;;;5080280;28;20382;-50
2021/05/08 13:34:07;;;;;;;1.00;0.80;;;;;;;;;;5091458;28;20269;-52
2021/05/08 13:36:32;;;;;;;1.27;1.00;;;;;;;;;;5073819;28;20302;-52
2021/05/08 13:38:58;;;;;;;1.00;1.00;;;;;;;;;;5076865;28;20324;-53
2021/05/08 13:41:23;;;;;;;0.97;0.97;;;;;;;;;;5080407;28;20098;-54
2021/05/08 13:43:48;;;;;;;0.88;0.50;;;;;;;;;;5073164;28;20294;-52
2021/05/08 13:46:13;;;;;;;1.77;0.50;;;;;;;;;;5072727;28;20031;-54
2021/05/08 13:48:38;;;;;;;2.05;0.90;;;;;;;;;;5085084;28;20737;-52
2021/05/08 13:51:04;;;;;;;1.23;0.50;;;;;;;;;;5089589;28;20023;-52
2021/05/08 13:53:30;;;;;;;0.75;0.50;;;;;;;;;;5079311;28;20032;-51
2021/05/08 13:55:55;;;;;;;0.95;0.50;;;;;;;;;;5076172;28;20493;-51
2021/05/08 13:58:20;;;;;;;1.25;0.90;;;;;;;;;;5075316;28;20016;-52
2021/05/08 14:00:46;;;;;;;1.23;0.93;;;;;;;;;;5085246;28;20032;-52
2021/05/08 14:03:11;;;;;;;1.17;0.90;;;;;;;;;;5077461;28;20046;-52
2021/05/08 14:05:36;;;;;;;1.10;0.52;;;;;;;;;;5074767;28;20030;-54
2021/05/08 14:08:01;;;;;;;0.52;0.40;;;;;;;;;;5080141;28;20020;-52
2021/05/08 14:10:27;;;;;;;1.13;0.50;;;;;;;;;;5080497;28;20100;-54
2021/05/08 14:12:52;;;;;;;0.80;0.50;;;;;;;;;;5087010;28;20278;-54
2021/05/08 14:15:17;;;;;;;1.52;0.43;;;;;;;;;;5080490;28;20716;-54
2021/05/08 14:17:42;;;;;;;1.23;0.50;;;;;;;;;;5083770;28;20039;-54
2021/05/08 14:20:08;;;;;;;0.57;0.32;;;;;;;;;;5071931;28;20016;-53
2021/05/08 14:22:36;;;;;;;0.77;0.30;;;;;;;;;;5071345;28;20116;-56
2021/05/08 14:25:01;;;;;;;1.25;0.40;;;;;;;;;;5071134;28;20035;-55
2021/05/08 14:27:26;;;;;;;0.77;0.50;;;;;;;;;;5070252;28;20331;-52
2021/05/08 14:29:52;;;;;;;0.57;0.43;;;;;;;;;;5072890;28;20020;-52
2021/05/08 14:32:17;;;;;;;0.50;0.40;;;;;;;;;;5088803;28;20270;-55
2021/05/08 14:34:42;;;;;;;0.57;0.50;;;;;;;;;;5089287;28;20454;-54
2021/05/08 14:37:09;;;;;;;0.70;0.40;;;;;;;;;;5070568;28;20009;-52
2021/05/08 14:39:34;;;;;;;0.40;0.40;;;;;;;;;;5080816;28;20262;-52
2021/05/08 14:42:01;;;;;;;0.50;0.40;;;;;;;;;;5090223;28;20028;-58